sensor_id;sensor_type;location;lat;lon;timestamp;P1;durP1;ratioP1;P2;durP2;ratioP2
14235;SDS011;7202;50.718;7.072;2023-05-14T00:02:26;9.25;;;6.82;;
14235;SDS011;7202;50.718;7.072;2023-05-14T00:04:54;7.68;;;6.55;;
14235;SDS011;7202;50.718;7.072;2023-05-14T00:07:23;10.02;;;6.75;;
14235;SDS011;7202;50.718;7.072;2023-05-14T00:09:58;7.72;;;6.93;;
14235;SDS011;7202;50.718;7.072;2023-05-14T00:12:27;8.23;;;6.68;;
14235;SDS011;7202;50.718;7.072;2023-05-14T00:14:56;7.15;;;6.45;;
14235;SDS011;7202;50.718;7.072;2023-05-14T00:17:24;8.82;;;7.20;;
14235;SDS011;7202;50.718;7.072;2023-05-14T00:19:53;7.72;;;6.53;;
14235;SDS011;7202;50.718;7.072;2023-05-14T00:22:21;8.77;;;7.18;;
14235;SDS011;7202;50.718;7.072;2023-05-14T00:24:50;7.35;;;6.57;;
14235;SDS011;7202;50.718;7.072;2023-05-14T00:27:20;10.00;;;7.30;;
14235;SDS011;7202;50.718;7.072;2023-05-14T00:29:49;9.18;;;7.28;;
14235;SDS011;7202;50.718;7.072;2023-05-14T00:32:17;8.10;;;6.53;;
14235;SDS011;7202;50.718;7.072;2023-05-14T00:34:46;7.72;;;6.88;;
14235;SDS011;7202;50.718;7.072;2023-05-14T00:37:15;8.45;;;7.13;;
14235;SDS011;7202;50.718;7.072;2023-05-14T00:39:43;7.63;;;6.82;;
14235;SDS011;7202;50.718;7.072;2023-05-14T00:42:12;8.30;;;7.47;;
14235;SDS011;7202;50.718;7.072;2023-05-14T00:44:42;10.00;;;6.38;;
14235;SDS011;7202;50.718;7.072;2023-05-14T00:47:10;10.63;;;6.80;;
14235;SDS011;7202;50.718;7.072;2023-05-14T00:49:39;12.48;;;7.43;;
14235;SDS011;7202;50.718;7.072;2023-05-14T00:52:09;8.13;;;6.55;;
14235;SDS011;7202;50.718;7.072;2023-05-14T00:54:38;10.40;;;6.78;;
14235;SDS011;7202;50.718;7.072;2023-05-14T00:57:07;7.07;;;6.32;;
14235;SDS011;7202;50.718;7.072;2023-05-14T00:59:36;7.88;;;6.28;;
14235;SDS011;7202;50.718;7.072;2023-05-14T01:02:08;8.23;;;7.10;;
14235;SDS011;7202;50.718;7.072;2023-05-14T01:04:37;9.30;;;6.97;;
14235;SDS011;7202;50.718;7.072;2023-05-14T01:07:08;9.32;;;7.05;;
14235;SDS011;7202;50.718;7.072;2023-05-14T01:09:45;11.90;;;8.50;;
14235;SDS011;7202;50.718;7.072;2023-05-14T01:12:20;10.75;;;7.80;;
14235;SDS011;7202;50.718;7.072;2023-05-14T01:15:01;7.53;;;6.72;;
14235;SDS011;7202;50.718;7.072;2023-05-14T01:17:37;10.95;;;7.28;;
14235;SDS011;7202;50.718;7.072;2023-05-14T01:20:08;12.85;;;7.28;;
14235;SDS011;7202;50.718;7.072;2023-05-14T01:22:39;7.50;;;6.65;;
14235;SDS011;7202;50.718;7.072;2023-05-14T01:25:09;7.90;;;7.10;;
14235;SDS011;7202;50.718;7.072;2023-05-14T01:27:40;8.95;;;7.50;;
14235;SDS011;7202;50.718;7.072;2023-05-14T01:30:15;8.77;;;7.30;;
14235;SDS011;7202;50.718;7.072;2023-05-14T01:32:50;7.50;;;6.80;;
14235;SDS011;7202;50.718;7.072;2023-05-14T01:35:21;10.10;;;6.90;;
14235;SDS011;7202;50.718;7.072;2023-05-14T01:37:54;7.72;;;6.50;;
14235;SDS011;7202;50.718;7.072;2023-05-14T01:40:25;10.07;;;7.15;;
14235;SDS011;7202;50.718;7.072;2023-05-14T01:42:54;8.13;;;7.22;;
14235;SDS011;7202;50.718;7.072;2023-05-14T01:45:23;11.40;;;7.72;;
14235;SDS011;7202;50.718;7.072;2023-05-14T01:47:52;10.30;;;8.05;;
14235;SDS011;7202;50.718;7.072;2023-05-14T01:50:21;11.05;;;7.15;;
14235;SDS011;7202;50.718;7.072;2023-05-14T01:52:50;10.93;;;8.13;;
14235;SDS011;7202;50.718;7.072;2023-05-14T01:55:23;11.77;;;7.65;;
14235;SDS011;7202;50.718;7.072;2023-05-14T01:57:53;9.88;;;7.32;;
14235;SDS011;7202;50.718;7.072;2023-05-14T02:00:22;9.43;;;8.52;;
14235;SDS011;7202;50.718;7.072;2023-05-14T02:02:52;9.52;;;7.90;;
14235;SDS011;7202;50.718;7.072;2023-05-14T02:05:22;12.10;;;8.32;;
14235;SDS011;7202;50.718;7.072;2023-05-14T02:07:53;8.65;;;7.75;;
14235;SDS011;7202;50.718;7.072;2023-05-14T02:10:21;10.18;;;7.85;;
14235;SDS011;7202;50.718;7.072;2023-05-14T02:12:52;8.45;;;7.40;;
14235;SDS011;7202;50.718;7.072;2023-05-14T02:15:20;8.30;;;7.50;;
14235;SDS011;7202;50.718;7.072;2023-05-14T02:17:49;8.60;;;7.80;;
14235;SDS011;7202;50.718;7.072;2023-05-14T02:20:18;9.73;;;8.38;;
14235;SDS011;7202;50.718;7.072;2023-05-14T02:22:47;10.35;;;7.78;;
14235;SDS011;7202;50.718;7.072;2023-05-14T02:25:15;8.60;;;7.70;;
14235;SDS011;7202;50.718;7.072;2023-05-14T02:27:46;9.32;;;7.80;;
14235;SDS011;7202;50.718;7.072;2023-05-14T02:30:15;8.65;;;7.35;;
14235;SDS011;7202;50.718;7.072;2023-05-14T02:32:44;9.75;;;7.55;;
14235;SDS011;7202;50.718;7.072;2023-05-14T02:35:13;11.13;;;7.43;;
14235;SDS011;7202;50.718;7.072;2023-05-14T02:37:42;9.00;;;7.88;;
14235;SDS011;7202;50.718;7.072;2023-05-14T02:40:11;8.88;;;7.97;;
14235;SDS011;7202;50.718;7.072;2023-05-14T02:42:40;9.38;;;8.25;;
14235;SDS011;7202;50.718;7.072;2023-05-14T02:45:10;11.07;;;7.93;;
14235;SDS011;7202;50.718;7.072;2023-05-14T02:47:39;8.52;;;7.40;;
14235;SDS011;7202;50.718;7.072;2023-05-14T02:50:08;9.20;;;8.00;;
14235;SDS011;7202;50.718;7.072;2023-05-14T02:52:37;8.75;;;7.45;;
14235;SDS011;7202;50.718;7.072;2023-05-14T02:55:06;9.50;;;7.43;;
14235;SDS011;7202;50.718;7.072;2023-05-14T02:57:35;8.82;;;7.15;;
14235;SDS011;7202;50.718;7.072;2023-05-14T03:00:04;8.95;;;7.72;;
14235;SDS011;7202;50.718;7.072;2023-05-14T03:02:36;9.93;;;7.88;;
14235;SDS011;7202;50.718;7.072;2023-05-14T03:05:06;9.73;;;8.32;;
14235;SDS011;7202;50.718;7.072;2023-05-14T03:07:35;8.48;;;7.60;;
14235;SDS011;7202;50.718;7.072;2023-05-14T03:10:04;10.40;;;7.43;;
14235;SDS011;7202;50.718;7.072;2023-05-14T03:12:33;7.97;;;7.18;;
14235;SDS011;7202;50.718;7.072;2023-05-14T03:15:02;8.80;;;7.78;;
14235;SDS011;7202;50.718;7.072;2023-05-14T03:17:31;8.85;;;7.95;;
14235;SDS011;7202;50.718;7.072;2023-05-14T03:20:01;10.52;;;7.63;;
14235;SDS011;7202;50.718;7.072;2023-05-14T03:22:30;12.60;;;7.97;;
14235;SDS011;7202;50.718;7.072;2023-05-14T03:24:59;9.57;;;8.38;;
14235;SDS011;7202;50.718;7.072;2023-05-14T03:27:27;8.90;;;8.00;;
14235;SDS011;7202;50.718;7.072;2023-05-14T03:29:56;9.20;;;8.35;;
14235;SDS011;7202;50.718;7.072;2023-05-14T03:32:25;8.63;;;7.72;;
14235;SDS011;7202;50.718;7.072;2023-05-14T03:34:54;8.90;;;7.95;;
14235;SDS011;7202;50.718;7.072;2023-05-14T03:37:24;10.20;;;7.63;;
14235;SDS011;7202;50.718;7.072;2023-05-14T03:39:52;11.23;;;7.47;;
14235;SDS011;7202;50.718;7.072;2023-05-14T03:42:21;8.80;;;7.90;;
14235;SDS011;7202;50.718;7.072;2023-05-14T03:44:49;12.40;;;8.10;;
14235;SDS011;7202;50.718;7.072;2023-05-14T03:47:18;12.05;;;8.35;;
14235;SDS011;7202;50.718;7.072;2023-05-14T03:49:46;12.25;;;8.55;;
14235;SDS011;7202;50.718;7.072;2023-05-14T03:52:15;10.38;;;7.35;;
14235;SDS011;7202;50.718;7.072;2023-05-14T03:54:45;8.90;;;7.95;;
14235;SDS011;7202;50.718;7.072;2023-05-14T03:57:14;9.25;;;7.68;;
14235;SDS011;7202;50.718;7.072;2023-05-14T03:59:43;8.68;;;7.72;;
14235;SDS011;7202;50.718;7.072;2023-05-14T04:02:12;8.27;;;7.40;;
14235;SDS011;7202;50.718;7.072;2023-05-14T04:04:41;9.50;;;8.13;;
14235;SDS011;7202;50.718;7.072;2023-05-14T04:07:09;10.35;;;7.30;;
14235;SDS011;7202;50.718;7.072;2023-05-14T04:09:38;9.25;;;7.30;;
14235;SDS011;7202;50.718;7.072;2023-05-14T04:12:08;9.40;;;6.93;;
14235;SDS011;7202;50.718;7.072;2023-05-14T04:14:37;8.40;;;7.60;;
14235;SDS011;7202;50.718;7.072;2023-05-14T04:17:08;8.50;;;7.60;;
14235;SDS011;7202;50.718;7.072;2023-05-14T04:19:37;14.00;;;8.15;;
14235;SDS011;7202;50.718;7.072;2023-05-14T04:22:06;8.32;;;7.53;;
14235;SDS011;7202;50.718;7.072;2023-05-14T04:24:34;8.98;;;7.53;;
14235;SDS011;7202;50.718;7.072;2023-05-14T04:27:03;9.75;;;8.25;;
14235;SDS011;7202;50.718;7.072;2023-05-14T04:29:34;8.30;;;7.45;;
14235;SDS011;7202;50.718;7.072;2023-05-14T04:32:03;8.02;;;7.15;;
14235;SDS011;7202;50.718;7.072;2023-05-14T04:34:32;9.90;;;7.78;;
14235;SDS011;7202;50.718;7.072;2023-05-14T04:37:01;8.07;;;7.15;;
14235;SDS011;7202;50.718;7.072;2023-05-14T04:39:30;8.20;;;7.40;;
14235;SDS011;7202;50.718;7.072;2023-05-14T04:41:59;8.98;;;8.07;;
14235;SDS011;7202;50.718;7.072;2023-05-14T04:44:32;9.20;;;8.20;;
14235;SDS011;7202;50.718;7.072;2023-05-14T04:47:03;16.77;;;9.15;;
14235;SDS011;7202;50.718;7.072;2023-05-14T04:49:32;9.65;;;8.63;;
14235;SDS011;7202;50.718;7.072;2023-05-14T04:52:01;9.45;;;8.40;;
14235;SDS011;7202;50.718;7.072;2023-05-14T04:54:30;9.98;;;8.48;;
14235;SDS011;7202;50.718;7.072;2023-05-14T04:56:58;9.50;;;8.50;;
14235;SDS011;7202;50.718;7.072;2023-05-14T04:59:29;9.45;;;8.45;;
14235;SDS011;7202;50.718;7.072;2023-05-14T05:02:01;9.27;;;8.32;;
14235;SDS011;7202;50.718;7.072;2023-05-14T05:04:30;10.05;;;8.77;;
14235;SDS011;7202;50.718;7.072;2023-05-14T05:06:58;9.82;;;8.65;;
14235;SDS011;7202;50.718;7.072;2023-05-14T05:09:27;9.00;;;8.10;;
14235;SDS011;7202;50.718;7.072;2023-05-14T05:11:55;10.43;;;8.50;;
14235;SDS011;7202;50.718;7.072;2023-05-14T05:14:24;10.15;;;8.55;;
14235;SDS011;7202;50.718;7.072;2023-05-14T05:16:53;12.07;;;8.63;;
14235;SDS011;7202;50.718;7.072;2023-05-14T05:19:23;14.38;;;9.40;;
14235;SDS011;7202;50.718;7.072;2023-05-14T05:22:05;11.00;;;8.88;;
14235;SDS011;7202;50.718;7.072;2023-05-14T05:24:34;10.32;;;8.90;;
14235;SDS011;7202;50.718;7.072;2023-05-14T05:27:03;13.23;;;9.65;;
14235;SDS011;7202;50.718;7.072;2023-05-14T05:29:33;12.73;;;8.98;;
14235;SDS011;7202;50.718;7.072;2023-05-14T05:32:02;11.20;;;9.60;;
14235;SDS011;7202;50.718;7.072;2023-05-14T05:34:33;11.07;;;9.98;;
14235;SDS011;7202;50.718;7.072;2023-05-14T05:37:02;11.93;;;10.70;;
14235;SDS011;7202;50.718;7.072;2023-05-14T05:39:31;12.15;;;10.85;;
14235;SDS011;7202;50.718;7.072;2023-05-14T05:42:01;13.40;;;10.38;;
14235;SDS011;7202;50.718;7.072;2023-05-14T05:44:29;12.65;;;10.77;;
14235;SDS011;7202;50.718;7.072;2023-05-14T05:46:58;11.43;;;10.32;;
14235;SDS011;7202;50.718;7.072;2023-05-14T05:49:27;16.20;;;10.65;;
14235;SDS011;7202;50.718;7.072;2023-05-14T05:51:57;13.45;;;10.77;;
14235;SDS011;7202;50.718;7.072;2023-05-14T05:54:25;14.00;;;11.27;;
14235;SDS011;7202;50.718;7.072;2023-05-14T05:56:54;13.52;;;10.80;;
14235;SDS011;7202;50.718;7.072;2023-05-14T05:59:23;16.08;;;10.52;;
14235;SDS011;7202;50.718;7.072;2023-05-14T06:01:52;12.35;;;10.48;;
14235;SDS011;7202;50.718;7.072;2023-05-14T06:04:20;10.85;;;9.85;;
14235;SDS011;7202;50.718;7.072;2023-05-14T06:06:49;12.90;;;10.07;;
14235;SDS011;7202;50.718;7.072;2023-05-14T06:09:19;13.45;;;11.05;;
14235;SDS011;7202;50.718;7.072;2023-05-14T06:11:47;12.00;;;10.02;;
14235;SDS011;7202;50.718;7.072;2023-05-14T06:14:16;11.50;;;10.25;;
14235;SDS011;7202;50.718;7.072;2023-05-14T06:16:44;11.82;;;10.23;;
14235;SDS011;7202;50.718;7.072;2023-05-14T06:19:13;11.05;;;9.55;;
14235;SDS011;7202;50.718;7.072;2023-05-14T06:21:42;13.07;;;11.68;;
14235;SDS011;7202;50.718;7.072;2023-05-14T06:24:10;13.85;;;10.90;;
14235;SDS011;7202;50.718;7.072;2023-05-14T06:26:41;15.25;;;12.10;;
14235;SDS011;7202;50.718;7.072;2023-05-14T06:29:10;13.48;;;11.10;;
14235;SDS011;7202;50.718;7.072;2023-05-14T06:31:38;12.20;;;10.90;;
14235;SDS011;7202;50.718;7.072;2023-05-14T06:34:07;13.60;;;11.20;;
14235;SDS011;7202;50.718;7.072;2023-05-14T06:36:36;11.45;;;10.25;;
14235;SDS011;7202;50.718;7.072;2023-05-14T06:39:05;12.98;;;10.73;;
14235;SDS011;7202;50.718;7.072;2023-05-14T06:41:33;12.63;;;11.32;;
14235;SDS011;7202;50.718;7.072;2023-05-14T06:44:03;14.30;;;12.80;;
14235;SDS011;7202;50.718;7.072;2023-05-14T06:46:32;13.27;;;11.48;;
14235;SDS011;7202;50.718;7.072;2023-05-14T06:49:01;13.00;;;11.52;;
14235;SDS011;7202;50.718;7.072;2023-05-14T06:51:30;12.77;;;11.52;;
14235;SDS011;7202;50.718;7.072;2023-05-14T06:53:58;15.07;;;11.32;;
14235;SDS011;7202;50.718;7.072;2023-05-14T06:56:27;14.57;;;12.25;;
14235;SDS011;7202;50.718;7.072;2023-05-14T06:58:55;15.35;;;12.82;;
14235;SDS011;7202;50.718;7.072;2023-05-14T07:01:28;15.82;;;13.82;;
14235;SDS011;7202;50.718;7.072;2023-05-14T07:03:57;16.58;;;13.48;;
14235;SDS011;7202;50.718;7.072;2023-05-14T07:06:26;17.30;;;15.38;;
14235;SDS011;7202;50.718;7.072;2023-05-14T07:08:55;19.15;;;15.75;;
14235;SDS011;7202;50.718;7.072;2023-05-14T07:11:23;17.63;;;15.75;;
14235;SDS011;7202;50.718;7.072;2023-05-14T07:13:52;17.88;;;15.95;;
14235;SDS011;7202;50.718;7.072;2023-05-14T07:16:21;17.42;;;15.65;;
14235;SDS011;7202;50.718;7.072;2023-05-14T07:18:51;17.42;;;14.95;;
14235;SDS011;7202;50.718;7.072;2023-05-14T07:21:19;18.77;;;16.73;;
14235;SDS011;7202;50.718;7.072;2023-05-14T07:23:48;17.80;;;15.55;;
14235;SDS011;7202;50.718;7.072;2023-05-14T07:26:17;18.98;;;16.23;;
14235;SDS011;7202;50.718;7.072;2023-05-14T07:28:45;18.13;;;16.23;;
14235;SDS011;7202;50.718;7.072;2023-05-14T07:31:14;16.85;;;15.15;;
14235;SDS011;7202;50.718;7.072;2023-05-14T07:33:43;19.50;;;16.50;;
14235;SDS011;7202;50.718;7.072;2023-05-14T07:36:13;17.90;;;15.93;;
14235;SDS011;7202;50.718;7.072;2023-05-14T07:38:41;20.65;;;16.33;;
14235;SDS011;7202;50.718;7.072;2023-05-14T07:41:10;18.25;;;16.05;;
14235;SDS011;7202;50.718;7.072;2023-05-14T07:43:39;19.77;;;17.75;;
14235;SDS011;7202;50.718;7.072;2023-05-14T07:46:08;17.75;;;15.23;;
14235;SDS011;7202;50.718;7.072;2023-05-14T07:48:36;16.60;;;14.52;;
14235;SDS011;7202;50.718;7.072;2023-05-14T07:51:05;14.80;;;13.30;;
14235;SDS011;7202;50.718;7.072;2023-05-14T07:53:35;16.58;;;14.00;;
14235;SDS011;7202;50.718;7.072;2023-05-14T07:56:04;20.42;;;12.65;;
14235;SDS011;7202;50.718;7.072;2023-05-14T07:58:33;18.15;;;13.80;;
14235;SDS011;7202;50.718;7.072;2023-05-14T08:01:02;15.48;;;13.95;;
14235;SDS011;7202;50.718;7.072;2023-05-14T08:03:33;15.32;;;13.73;;
14235;SDS011;7202;50.718;7.072;2023-05-14T08:06:02;16.42;;;13.02;;
14235;SDS011;7202;50.718;7.072;2023-05-14T08:08:31;14.15;;;12.65;;
14235;SDS011;7202;50.718;7.072;2023-05-14T08:11:01;16.20;;;12.48;;
14235;SDS011;7202;50.718;7.072;2023-05-14T08:13:30;12.55;;;11.23;;
14235;SDS011;7202;50.718;7.072;2023-05-14T08:15:59;13.25;;;10.57;;
14235;SDS011;7202;50.718;7.072;2023-05-14T08:18:28;11.82;;;10.63;;
14235;SDS011;7202;50.718;7.072;2023-05-14T08:20:56;11.48;;;10.02;;
14235;SDS011;7202;50.718;7.072;2023-05-14T08:23:25;12.25;;;10.40;;
14235;SDS011;7202;50.718;7.072;2023-05-14T08:25:54;13.20;;;11.88;;
14235;SDS011;7202;50.718;7.072;2023-05-14T08:28:26;12.52;;;11.15;;
14235;SDS011;7202;50.718;7.072;2023-05-14T08:30:55;11.68;;;10.48;;
14235;SDS011;7202;50.718;7.072;2023-05-14T08:33:23;11.23;;;10.13;;
14235;SDS011;7202;50.718;7.072;2023-05-14T08:35:52;12.98;;;9.75;;
14235;SDS011;7202;50.718;7.072;2023-05-14T08:38:22;9.30;;;8.40;;
14235;SDS011;7202;50.718;7.072;2023-05-14T08:40:53;10.38;;;9.27;;
14235;SDS011;7202;50.718;7.072;2023-05-14T08:43:24;9.98;;;8.98;;
14235;SDS011;7202;50.718;7.072;2023-05-14T08:45:59;13.02;;;8.63;;
14235;SDS011;7202;50.718;7.072;2023-05-14T08:48:32;9.10;;;8.07;;
14235;SDS011;7202;50.718;7.072;2023-05-14T08:51:02;11.23;;;8.60;;
14235;SDS011;7202;50.718;7.072;2023-05-14T08:53:31;9.27;;;8.35;;
14235;SDS011;7202;50.718;7.072;2023-05-14T08:56:02;11.27;;;8.38;;
14235;SDS011;7202;50.718;7.072;2023-05-14T08:58:35;8.98;;;8.07;;
14235;SDS011;7202;50.718;7.072;2023-05-14T09:01:04;7.72;;;6.95;;
14235;SDS011;7202;50.718;7.072;2023-05-14T09:03:33;8.77;;;7.63;;
14235;SDS011;7202;50.718;7.072;2023-05-14T09:06:03;10.00;;;8.07;;
14235;SDS011;7202;50.718;7.072;2023-05-14T09:08:32;8.27;;;7.47;;
14235;SDS011;7202;50.718;7.072;2023-05-14T09:11:02;8.57;;;7.78;;
14235;SDS011;7202;50.718;7.072;2023-05-14T09:13:31;7.18;;;6.47;;
14235;SDS011;7202;50.718;7.072;2023-05-14T09:16:01;10.20;;;7.35;;
14235;SDS011;7202;50.718;7.072;2023-05-14T09:18:34;9.50;;;7.25;;
14235;SDS011;7202;50.718;7.072;2023-05-14T09:21:03;7.55;;;6.80;;
14235;SDS011;7202;50.718;7.072;2023-05-14T09:23:32;9.07;;;7.00;;
14235;SDS011;7202;50.718;7.072;2023-05-14T09:26:03;6.95;;;6.35;;
14235;SDS011;7202;50.718;7.072;2023-05-14T09:28:32;7.55;;;6.63;;
14235;SDS011;7202;50.718;7.072;2023-05-14T09:31:02;8.25;;;7.45;;
14235;SDS011;7202;50.718;7.072;2023-05-14T09:33:31;8.48;;;7.68;;
14235;SDS011;7202;50.718;7.072;2023-05-14T09:36:00;7.85;;;6.95;;
14235;SDS011;7202;50.718;7.072;2023-05-14T09:38:29;7.22;;;6.53;;
14235;SDS011;7202;50.718;7.072;2023-05-14T09:40:58;6.78;;;6.07;;
14235;SDS011;7202;50.718;7.072;2023-05-14T09:43:27;8.32;;;6.40;;
14235;SDS011;7202;50.718;7.072;2023-05-14T09:45:56;6.43;;;5.80;;
14235;SDS011;7202;50.718;7.072;2023-05-14T09:48:26;6.10;;;5.50;;
14235;SDS011;7202;50.718;7.072;2023-05-14T09:50:55;5.93;;;5.32;;
14235;SDS011;7202;50.718;7.072;2023-05-14T09:53:23;6.93;;;6.22;;
14235;SDS011;7202;50.718;7.072;2023-05-14T09:55:52;5.85;;;5.35;;
14235;SDS011;7202;50.718;7.072;2023-05-14T09:58:20;6.30;;;5.53;;
14235;SDS011;7202;50.718;7.072;2023-05-14T10:00:49;5.53;;;5.03;;
14235;SDS011;7202;50.718;7.072;2023-05-14T10:03:18;6.28;;;5.68;;
14235;SDS011;7202;50.718;7.072;2023-05-14T10:05:50;5.35;;;4.85;;
14235;SDS011;7202;50.718;7.072;2023-05-14T10:08:21;4.22;;;3.88;;
14235;SDS011;7202;50.718;7.072;2023-05-14T10:10:53;5.63;;;4.00;;
14235;SDS011;7202;50.718;7.072;2023-05-14T10:13:23;5.78;;;4.63;;
14235;SDS011;7202;50.718;7.072;2023-05-14T10:16:00;4.82;;;4.10;;
14235;SDS011;7202;50.718;7.072;2023-05-14T10:18:39;5.13;;;3.53;;
14235;SDS011;7202;50.718;7.072;2023-05-14T10:21:13;4.18;;;3.78;;
14235;SDS011;7202;50.718;7.072;2023-05-14T10:23:43;4.45;;;4.05;;
14235;SDS011;7202;50.718;7.072;2023-05-14T10:26:13;7.13;;;4.18;;
14235;SDS011;7202;50.718;7.072;2023-05-14T10:28:42;4.25;;;3.90;;
14235;SDS011;7202;50.718;7.072;2023-05-14T10:31:11;5.05;;;4.55;;
14235;SDS011;7202;50.718;7.072;2023-05-14T10:33:46;4.30;;;3.92;;
14235;SDS011;7202;50.718;7.072;2023-05-14T10:36:17;5.07;;;4.10;;
14235;SDS011;7202;50.718;7.072;2023-05-14T10:38:48;6.43;;;4.53;;
14235;SDS011;7202;50.718;7.072;2023-05-14T10:41:22;4.80;;;4.40;;
14235;SDS011;7202;50.718;7.072;2023-05-14T10:43:51;4.85;;;4.35;;
14235;SDS011;7202;50.718;7.072;2023-05-14T10:46:20;4.82;;;4.00;;
14235;SDS011;7202;50.718;7.072;2023-05-14T10:48:48;4.97;;;4.57;;
14235;SDS011;7202;50.718;7.072;2023-05-14T10:51:19;4.85;;;4.10;;
14235;SDS011;7202;50.718;7.072;2023-05-14T10:53:49;4.90;;;4.40;;
14235;SDS011;7202;50.718;7.072;2023-05-14T10:56:17;7.85;;;4.05;;
14235;SDS011;7202;50.718;7.072;2023-05-14T10:58:47;4.40;;;4.00;;
14235;SDS011;7202;50.718;7.072;2023-05-14T11:01:17;4.22;;;3.83;;
14235;SDS011;7202;50.718;7.072;2023-05-14T11:03:50;4.30;;;3.95;;
14235;SDS011;7202;50.718;7.072;2023-05-14T11:06:23;4.10;;;3.65;;
14235;SDS011;7202;50.718;7.072;2023-05-14T11:08:57;3.83;;;3.53;;
14235;SDS011;7202;50.718;7.072;2023-05-14T11:11:32;6.13;;;3.60;;
14235;SDS011;7202;50.718;7.072;2023-05-14T11:14:02;5.15;;;3.97;;
14235;SDS011;7202;50.718;7.072;2023-05-14T11:16:30;3.95;;;3.60;;
14235;SDS011;7202;50.718;7.072;2023-05-14T11:19:01;4.00;;;3.70;;
14235;SDS011;7202;50.718;7.072;2023-05-14T11:21:32;3.97;;;3.67;;
14235;SDS011;7202;50.718;7.072;2023-05-14T11:24:00;5.53;;;3.55;;
14235;SDS011;7202;50.718;7.072;2023-05-14T11:26:31;3.85;;;3.55;;
14235;SDS011;7202;50.718;7.072;2023-05-14T11:28:59;4.53;;;3.28;;
14235;SDS011;7202;50.718;7.072;2023-05-14T11:31:28;7.00;;;3.80;;
14235;SDS011;7202;50.718;7.072;2023-05-14T11:33:57;4.43;;;3.70;;
14235;SDS011;7202;50.718;7.072;2023-05-14T11:36:27;5.65;;;3.63;;
14235;SDS011;7202;50.718;7.072;2023-05-14T11:38:57;4.32;;;3.92;;
14235;SDS011;7202;50.718;7.072;2023-05-14T11:41:25;4.00;;;3.70;;
14235;SDS011;7202;50.718;7.072;2023-05-14T11:43:56;5.18;;;3.90;;
14235;SDS011;7202;50.718;7.072;2023-05-14T11:46:26;4.50;;;4.10;;
14235;SDS011;7202;50.718;7.072;2023-05-14T11:48:56;4.50;;;3.97;;
14235;SDS011;7202;50.718;7.072;2023-05-14T11:51:25;4.40;;;4.00;;
14235;SDS011;7202;50.718;7.072;2023-05-14T11:53:54;4.07;;;3.78;;
14235;SDS011;7202;50.718;7.072;2023-05-14T11:56:26;5.13;;;3.72;;
14235;SDS011;7202;50.718;7.072;2023-05-14T11:58:55;4.47;;;3.65;;
14235;SDS011;7202;50.718;7.072;2023-05-14T12:01:24;4.15;;;3.78;;
14235;SDS011;7202;50.718;7.072;2023-05-14T12:03:54;4.85;;;3.72;;
14235;SDS011;7202;50.718;7.072;2023-05-14T12:06:29;4.97;;;3.90;;
14235;SDS011;7202;50.718;7.072;2023-05-14T12:08:57;5.88;;;4.03;;
14235;SDS011;7202;50.718;7.072;2023-05-14T12:11:30;4.97;;;4.00;;
14235;SDS011;7202;50.718;7.072;2023-05-14T12:13:59;5.40;;;3.90;;
14235;SDS011;7202;50.718;7.072;2023-05-14T12:16:29;4.25;;;3.83;;
14235;SDS011;7202;50.718;7.072;2023-05-14T12:18:58;4.18;;;3.72;;
14235;SDS011;7202;50.718;7.072;2023-05-14T12:21:28;4.25;;;3.65;;
14235;SDS011;7202;50.718;7.072;2023-05-14T12:23:57;4.05;;;3.63;;
14235;SDS011;7202;50.718;7.072;2023-05-14T12:26:31;4.38;;;3.78;;
14235;SDS011;7202;50.718;7.072;2023-05-14T12:29:02;6.28;;;4.03;;
14235;SDS011;7202;50.718;7.072;2023-05-14T12:31:32;4.70;;;4.30;;
14235;SDS011;7202;50.718;7.072;2023-05-14T12:34:02;4.20;;;3.80;;
14235;SDS011;7202;50.718;7.072;2023-05-14T12:36:33;4.18;;;3.55;;
14235;SDS011;7202;50.718;7.072;2023-05-14T12:39:02;4.72;;;4.20;;
14235;SDS011;7202;50.718;7.072;2023-05-14T12:41:33;5.18;;;4.57;;
14235;SDS011;7202;50.718;7.072;2023-05-14T12:44:02;5.05;;;4.55;;
14235;SDS011;7202;50.718;7.072;2023-05-14T12:46:31;5.45;;;4.55;;
14235;SDS011;7202;50.718;7.072;2023-05-14T12:49:01;5.38;;;4.78;;
14235;SDS011;7202;50.718;7.072;2023-05-14T12:51:29;5.97;;;4.40;;
14235;SDS011;7202;50.718;7.072;2023-05-14T12:53:58;5.25;;;4.57;;
14235;SDS011;7202;50.718;7.072;2023-05-14T12:56:27;7.03;;;5.05;;
14235;SDS011;7202;50.718;7.072;2023-05-14T12:58:58;7.22;;;5.03;;
14235;SDS011;7202;50.718;7.072;2023-05-14T13:01:27;5.85;;;4.82;;
14235;SDS011;7202;50.718;7.072;2023-05-14T13:03:56;5.18;;;4.68;;
14235;SDS011;7202;50.718;7.072;2023-05-14T13:06:25;5.72;;;4.55;;
14235;SDS011;7202;50.718;7.072;2023-05-14T13:08:54;5.80;;;4.80;;
14235;SDS011;7202;50.718;7.072;2023-05-14T13:11:22;5.60;;;5.00;;
14235;SDS011;7202;50.718;7.072;2023-05-14T13:13:51;6.05;;;5.45;;
14235;SDS011;7202;50.718;7.072;2023-05-14T13:16:21;5.90;;;4.72;;
14235;SDS011;7202;50.718;7.072;2023-05-14T13:18:50;7.93;;;5.50;;
14235;SDS011;7202;50.718;7.072;2023-05-14T13:21:20;5.57;;;5.07;;
14235;SDS011;7202;50.718;7.072;2023-05-14T13:23:49;5.82;;;5.22;;
14235;SDS011;7202;50.718;7.072;2023-05-14T13:26:18;6.28;;;5.68;;
14235;SDS011;7202;50.718;7.072;2023-05-14T13:28:47;7.70;;;5.13;;
14235;SDS011;7202;50.718;7.072;2023-05-14T13:31:15;6.57;;;5.97;;
14235;SDS011;7202;50.718;7.072;2023-05-14T13:33:45;6.07;;;5.43;;
14235;SDS011;7202;50.718;7.072;2023-05-14T13:36:14;7.40;;;5.70;;
14235;SDS011;7202;50.718;7.072;2023-05-14T13:38:43;7.60;;;5.45;;
14235;SDS011;7202;50.718;7.072;2023-05-14T13:41:18;5.72;;;4.10;;
14235;SDS011;7202;50.718;7.072;2023-05-14T13:43:48;6.97;;;5.55;;
14235;SDS011;7202;50.718;7.072;2023-05-14T13:46:16;7.00;;;6.07;;
14235;SDS011;7202;50.718;7.072;2023-05-14T13:48:46;5.53;;;5.03;;
14235;SDS011;7202;50.718;7.072;2023-05-14T13:51:15;8.98;;;5.75;;
14235;SDS011;7202;50.718;7.072;2023-05-14T13:53:44;6.28;;;5.18;;
14235;SDS011;7202;50.718;7.072;2023-05-14T13:56:12;5.32;;;4.82;;
14235;SDS011;7202;50.718;7.072;2023-05-14T13:58:41;6.00;;;4.80;;
14235;SDS011;7202;50.718;7.072;2023-05-14T14:01:10;7.18;;;5.35;;
14235;SDS011;7202;50.718;7.072;2023-05-14T14:03:38;5.20;;;4.70;;
14235;SDS011;7202;50.718;7.072;2023-05-14T14:06:08;6.72;;;5.50;;
14235;SDS011;7202;50.718;7.072;2023-05-14T14:08:37;7.35;;;6.55;;
14235;SDS011;7202;50.718;7.072;2023-05-14T14:11:06;6.38;;;5.60;;
14235;SDS011;7202;50.718;7.072;2023-05-14T14:13:35;7.50;;;5.30;;
14235;SDS011;7202;50.718;7.072;2023-05-14T14:16:04;7.72;;;6.10;;
14235;SDS011;7202;50.718;7.072;2023-05-14T14:18:33;8.48;;;5.38;;
14235;SDS011;7202;50.718;7.072;2023-05-14T14:21:01;7.88;;;6.20;;
14235;SDS011;7202;50.718;7.072;2023-05-14T14:23:31;6.22;;;5.63;;
14235;SDS011;7202;50.718;7.072;2023-05-14T14:26:00;6.18;;;5.57;;
14235;SDS011;7202;50.718;7.072;2023-05-14T14:28:29;6.68;;;6.00;;
14235;SDS011;7202;50.718;7.072;2023-05-14T14:30:58;8.10;;;4.93;;
14235;SDS011;7202;50.718;7.072;2023-05-14T14:33:26;6.40;;;5.10;;
14235;SDS011;7202;50.718;7.072;2023-05-14T14:35:55;9.23;;;5.07;;
14235;SDS011;7202;50.718;7.072;2023-05-14T14:38:24;6.47;;;5.25;;
14235;SDS011;7202;50.718;7.072;2023-05-14T14:40:54;6.80;;;4.68;;
14235;SDS011;7202;50.718;7.072;2023-05-14T14:43:23;7.10;;;5.13;;
14235;SDS011;7202;50.718;7.072;2023-05-14T14:45:52;5.28;;;4.57;;
14235;SDS011;7202;50.718;7.072;2023-05-14T14:48:22;6.03;;;4.95;;
14235;SDS011;7202;50.718;7.072;2023-05-14T14:50:54;5.25;;;4.75;;
14235;SDS011;7202;50.718;7.072;2023-05-14T14:53:23;5.53;;;4.47;;
14235;SDS011;7202;50.718;7.072;2023-05-14T14:55:52;5.03;;;4.32;;
14235;SDS011;7202;50.718;7.072;2023-05-14T14:58:22;8.48;;;4.65;;
14235;SDS011;7202;50.718;7.072;2023-05-14T15:00:52;6.80;;;4.72;;
14235;SDS011;7202;50.718;7.072;2023-05-14T15:03:22;5.07;;;4.60;;
14235;SDS011;7202;50.718;7.072;2023-05-14T15:05:52;5.45;;;4.53;;
14235;SDS011;7202;50.718;7.072;2023-05-14T15:08:23;6.13;;;4.75;;